sensor_id;sensor_type;location;lat;lon;timestamp;pressure;altitude;pressure_sealevel;temperature;humidity
65376;BME280;51976;47.332;9.404;2023-01-31T00:00:45;93603.94;;;19.09;30.91
65376;BME280;51976;47.332;9.404;2023-01-31T00:03:10;93607.19;;;19.11;31.07
65376;BME280;51976;47.332;9.404;2023-01-31T00:05:35;93606.06;;;19.12;30.92
65376;BME280;51976;47.332;9.404;2023-01-31T00:08:01;93602.34;;;19.08;30.92
65376;BME280;51976;47.332;9.404;2023-01-31T00:10:26;93606.50;;;19.05;30.82
65376;BME280;51976;47.332;9.404;2023-01-31T00:12:51;93596.88;;;19.08;30.93
65376;BME280;51976;47.332;9.404;2023-01-31T00:15:17;93605.06;;;19.08;31.09
65376;BME280;51976;47.332;9.404;2023-01-31T00:17:43;93603.94;;;19.09;30.88
65376;BME280;51976;47.332;9.404;2023-01-31T00:20:09;93608.59;;;19.08;31.09
65376;BME280;51976;47.332;9.404;2023-01-31T00:22:35;93598.94;;;19.02;30.97
65376;BME280;51976;47.332;9.404;2023-01-31T00:25:00;93601.53;;;19.07;31.05
65376;BME280;51976;47.332;9.404;2023-01-31T00:27:25;93601.03;;;19.05;30.97
65376;BME280;51976;47.332;9.404;2023-01-31T00:29:51;93602.03;;;19.09;30.90
65376;BME280;51976;47.332;9.404;2023-01-31T00:32:16;93602.34;;;19.08;30.83
65376;BME280;51976;47.332;9.404;2023-01-31T00:34:41;93611.34;;;19.08;30.95
65376;BME280;51976;47.332;9.404;2023-01-31T00:37:07;93604.09;;;19.04;30.87
65376;BME280;51976;47.332;9.404;2023-01-31T00:39:32;93596.06;;;19.07;30.97
65376;BME280;51976;47.332;9.404;2023-01-31T00:41:58;93597.69;;;19.08;30.93
65376;BME280;51976;47.332;9.404;2023-01-31T00:44:23;93595.25;;;19.07;30.96
65376;BME280;51976;47.332;9.404;2023-01-31T00:46:48;93586.25;;;19.06;30.88
65376;BME280;51976;47.332;9.404;2023-01-31T00:49:14;93588.19;;;19.06;30.88
65376;BME280;51976;47.332;9.404;2023-01-31T00:51:39;93591.22;;;19.04;30.94
65376;BME280;51976;47.332;9.404;2023-01-31T00:54:04;93588.81;;;19.03;30.88
65376;BME280;51976;47.332;9.404;2023-01-31T00:56:30;93587.06;;;19.07;30.91
65376;BME280;51976;47.332;9.404;2023-01-31T00:58:55;93586.06;;;19.03;31.05
65376;BME280;51976;47.332;9.404;2023-01-31T01:01:23;93590.09;;;19.05;31.07
65376;BME280;51976;47.332;9.404;2023-01-31T01:03:50;93589.94;;;19.02;30.89
65376;BME280;51976;47.332;9.404;2023-01-31T01:06:16;93577.06;;;19.02;31.04
65376;BME280;51976;47.332;9.404;2023-01-31T01:08:42;93594.59;;;19.01;30.92
65376;BME280;51976;47.332;9.404;2023-01-31T01:11:21;93580.94;;;19.01;31.01
65376;BME280;51976;47.332;9.404;2023-01-31T01:13:47;93583.16;;;18.99;30.87
65376;BME280;51976;47.332;9.404;2023-01-31T01:16:15;93572.25;;;18.99;30.73
65376;BME280;51976;47.332;9.404;2023-01-31T01:18:41;93573.69;;;18.97;31.02
65376;BME280;51976;47.332;9.404;2023-01-31T01:21:11;93572.25;;;18.99;30.83
65376;BME280;51976;47.332;9.404;2023-01-31T01:23:38;93574.66;;;19.01;30.91
65376;BME280;51976;47.332;9.404;2023-01-31T01:26:04;93579.31;;;19.00;30.61
65376;BME280;51976;47.332;9.404;2023-01-31T01:28:33;93575.47;;;19.01;30.78
65376;BME280;51976;47.332;9.404;2023-01-31T01:31:04;93579.94;;;18.97;30.89
65376;BME280;51976;47.332;9.404;2023-01-31T01:33:30;93583.00;;;18.96;30.89
65376;BME280;51976;47.332;9.404;2023-01-31T01:36:02;93580.75;;;18.98;30.78
65376;BME280;51976;47.332;9.404;2023-01-31T01:38:28;93577.03;;;18.93;30.95
65376;BME280;51976;47.332;9.404;2023-01-31T01:40:54;93586.03;;;18.94;30.78
65376;BME280;51976;47.332;9.404;2023-01-31T01:43:19;93585.22;;;18.93;30.71
65376;BME280;51976;47.332;9.404;2023-01-31T01:45:45;93585.41;;;18.97;30.78
65376;BME280;51976;47.332;9.404;2023-01-31T01:48:14;93591.19;;;18.96;30.81
65376;BME280;51976;47.332;9.404;2023-01-31T01:50:44;93592.00;;;18.96;30.89
65376;BME280;51976;47.332;9.404;2023-01-31T01:53:15;93596.34;;;18.97;30.87
65376;BME280;51976;47.332;9.404;2023-01-31T01:55:47;93607.09;;;18.93;30.91
65376;BME280;51976;47.332;9.404;2023-01-31T01:58:23;93594.72;;;18.96;30.83
65376;BME280;51976;47.332;9.404;2023-01-31T02:00:51;93604.53;;;18.97;31.03
65376;BME280;51976;47.332;9.404;2023-01-31T02:03:18;93602.75;;;18.92;30.68
65376;BME280;51976;47.332;9.404;2023-01-31T02:05:53;93594.88;;;18.91;30.64
65376;BME280;51976;47.332;9.404;2023-01-31T02:08:22;93601.31;;;18.95;30.90
65376;BME280;51976;47.332;9.404;2023-01-31T02:10:54;93597.78;;;18.94;30.70
65376;BME280;51976;47.332;9.404;2023-01-31T02:13:21;93595.66;;;18.91;30.80
65376;BME280;51976;47.332;9.404;2023-01-31T02:15:47;93596.97;;;18.94;30.58
65376;BME280;51976;47.332;9.404;2023-01-31T02:18:13;93593.44;;;18.93;30.91
65376;BME280;51976;47.332;9.404;2023-01-31T02:21:12;93592.13;;;18.91;30.55
65376;BME280;51976;47.332;9.404;2023-01-31T02:24:05;93587.97;;;18.93;30.73
65376;BME280;51976;47.332;9.404;2023-01-31T02:30:15;93585.06;;;18.90;30.88
65376;BME280;51976;47.332;9.404;2023-01-31T02:33:02;93585.88;;;18.90;30.90
65376;BME280;51976;47.332;9.404;2023-01-31T02:35:45;93580.41;;;18.90;30.80
65376;BME280;51976;47.332;9.404;2023-01-31T02:38:34;93579.78;;;18.93;30.73
65376;BME280;51976;47.332;9.404;2023-01-31T02:41:25;93577.16;;;18.88;30.74
65376;BME280;51976;47.332;9.404;2023-01-31T02:44:00;93581.84;;;18.88;30.83
65376;BME280;51976;47.332;9.404;2023-01-31T02:47:01;93581.84;;;18.88;30.69
65376;BME280;51976;47.332;9.404;2023-01-31T02:49:37;93591.31;;;18.90;30.83
65376;BME280;51976;47.332;9.404;2023-01-31T02:52:27;93594.69;;;18.87;30.51
65376;BME280;51976;47.332;9.404;2023-01-31T02:55:13;93602.25;;;18.90;30.72
65376;BME280;51976;47.332;9.404;2023-01-31T02:58:01;93604.66;;;18.92;30.51
65376;BME280;51976;47.332;9.404;2023-01-31T03:00:31;93598.72;;;18.90;30.47
65376;BME280;51976;47.332;9.404;2023-01-31T03:02:57;93605.63;;;18.87;30.72
65376;BME280;51976;47.332;9.404;2023-01-31T03:05:23;93604.84;;;18.87;30.66
65376;BME280;51976;47.332;9.404;2023-01-31T03:07:54;93600.31;;;18.91;30.45
65376;BME280;51976;47.332;9.404;2023-01-31T03:10:46;93609.97;;;18.88;30.74
65376;BME280;51976;47.332;9.404;2023-01-31T03:13:41;93606.59;;;18.91;30.59
65376;BME280;51976;47.332;9.404;2023-01-31T03:16:35;93604.84;;;18.87;30.71
65376;BME280;51976;47.332;9.404;2023-01-31T03:19:32;93610.63;;;18.85;30.63
65376;BME280;51976;47.332;9.404;2023-01-31T03:22:05;93607.56;;;18.87;30.53
65376;BME280;51976;47.332;9.404;2023-01-31T03:24:32;93614.63;;;18.88;30.83
65376;BME280;51976;47.332;9.404;2023-01-31T03:26:59;93614.63;;;18.88;30.77
65376;BME280;51976;47.332;9.404;2023-01-31T03:29:28;93618.50;;;18.87;30.70
65376;BME280;51976;47.332;9.404;2023-01-31T03:31:59;93614.63;;;18.88;30.45
65376;BME280;51976;47.332;9.404;2023-01-31T03:34:27;93617.34;;;18.88;30.82
65376;BME280;51976;47.332;9.404;2023-01-31T03:37:14;93616.88;;;18.86;30.76
65376;BME280;51976;47.332;9.404;2023-01-31T03:39:51;93612.38;;;18.90;30.78
65376;BME280;51976;47.332;9.404;2023-01-31T03:42:24;93610.75;;;18.89;30.68
65376;BME280;51976;47.332;9.404;2023-01-31T03:44:58;93615.09;;;18.90;30.68
65376;BME280;51976;47.332;9.404;2023-01-31T03:47:32;93622.50;;;18.89;30.54
65376;BME280;51976;47.332;9.404;2023-01-31T03:50:06;93616.88;;;18.86;30.68
65376;BME280;51976;47.332;9.404;2023-01-31T03:52:37;93610.94;;;18.84;30.35
65376;BME280;51976;47.332;9.404;2023-01-31T03:55:10;93613.66;;;18.84;30.77
65376;BME280;51976;47.332;9.404;2023-01-31T03:57:40;93609.81;;;18.85;30.63
65376;BME280;51976;47.332;9.404;2023-01-31T04:00:09;93611.41;;;18.86;30.45
65376;BME280;51976;47.332;9.404;2023-01-31T04:02:37;93611.25;;;18.82;30.74
65376;BME280;51976;47.332;9.404;2023-01-31T04:05:06;93612.03;;;18.83;30.53
65376;BME280;51976;47.332;9.404;2023-01-31T04:07:34;93619.94;;;18.84;30.58
65376;BME280;51976;47.332;9.404;2023-01-31T04:10:00;93616.88;;;18.86;30.67
65376;BME280;51976;47.332;9.404;2023-01-31T04:12:25;93615.28;;;18.85;30.73
65376;BME280;51976;47.332;9.404;2023-01-31T04:14:50;93624.59;;;18.84;30.56
65376;BME280;51976;47.332;9.404;2023-01-31T04:17:16;93625.41;;;18.84;30.62
65376;BME280;51976;47.332;9.404;2023-01-31T04:19:41;93630.34;;;18.82;30.57
65376;BME280;51976;47.332;9.404;2023-01-31T04:22:06;93642.09;;;18.83;30.53
65376;BME280;51976;47.332;9.404;2023-01-31T04:24:32;93642.28;;;18.86;30.40
65376;BME280;51976;47.332;9.404;2023-01-31T04:26:57;93641.94;;;18.88;30.45
65376;BME280;51976;47.332;9.404;2023-01-31T04:29:23;93645.81;;;18.87;30.75
65376;BME280;51976;47.332;9.404;2023-01-31T04:31:48;93645.63;;;18.83;30.50
65376;BME280;51976;47.332;9.404;2023-01-31T04:34:13;93640.66;;;18.85;30.72
65376;BME280;51976;47.332;9.404;2023-01-31T04:36:39;93643.41;;;18.85;30.64
65376;BME280;51976;47.332;9.404;2023-01-31T04:39:04;93630.53;;;18.86;30.58
65376;BME280;51976;47.332;9.404;2023-01-31T04:41:29;93639.06;;;18.84;30.50
65376;BME280;51976;47.332;9.404;2023-01-31T04:43:55;93633.28;;;18.86;30.44
65376;BME280;51976;47.332;9.404;2023-01-31T04:46:20;93640.97;;;18.84;30.49
65376;BME280;51976;47.332;9.404;2023-01-31T04:48:46;93641.78;;;18.84;30.51
65376;BME280;51976;47.332;9.404;2023-01-31T04:51:11;93647.25;;;18.84;30.54
65376;BME280;51976;47.332;9.404;2023-01-31T04:53:36;93648.69;;;18.82;30.70
65376;BME280;51976;47.332;9.404;2023-01-31T04:56:03;93651.09;;;18.83;30.64
65376;BME280;51976;47.332;9.404;2023-01-31T04:58:29;93648.06;;;18.85;30.38
65376;BME280;51976;47.332;9.404;2023-01-31T05:00:55;93648.06;;;18.85;30.60
65376;BME280;51976;47.332;9.404;2023-01-31T05:03:20;93641.47;;;18.86;30.23
65376;BME280;51976;47.332;9.404;2023-01-31T05:05:49;93652.72;;;18.84;30.48
65376;BME280;51976;47.332;9.404;2023-01-31T05:08:15;93657.19;;;18.80;30.51
65376;BME280;51976;47.332;9.404;2023-01-31T05:10:41;93655.56;;;18.79;30.46
65376;BME280;51976;47.332;9.404;2023-01-31T05:13:08;93653.66;;;18.80;30.64
65376;BME280;51976;47.332;9.404;2023-01-31T05:15:33;93657.19;;;18.80;30.50
65376;BME280;51976;47.332;9.404;2023-01-31T05:17:59;93654.75;;;18.79;30.69
65376;BME280;51976;47.332;9.404;2023-01-31T05:20:28;93658.78;;;18.81;30.55
65376;BME280;51976;47.332;9.404;2023-01-31T05:22:55;93662.47;;;18.77;30.61
65376;BME280;51976;47.332;9.404;2023-01-31T05:25:20;93663.75;;;18.79;30.61
65376;BME280;51976;47.332;9.404;2023-01-31T05:27:46;93670.03;;;18.80;30.47
65376;BME280;51976;47.332;9.404;2023-01-31T05:30:11;93675.00;;;18.78;30.47
65376;BME280;51976;47.332;9.404;2023-01-31T05:32:37;93673.06;;;18.78;30.34
65376;BME280;51976;47.332;9.404;2023-01-31T05:35:04;93676.94;;;18.77;30.70
65376;BME280;51976;47.332;9.404;2023-01-31T05:37:30;93681.59;;;18.77;30.40
65376;BME280;51976;47.332;9.404;2023-01-31T05:39:55;93685.94;;;18.78;30.69
65376;BME280;51976;47.332;9.404;2023-01-31T05:42:20;93685.63;;;18.79;30.43
65376;BME280;51976;47.332;9.404;2023-01-31T05:44:46;93682.38;;;18.77;30.60
65376;BME280;51976;47.332;9.404;2023-01-31T05:47:11;93697.47;;;18.75;30.37
65376;BME280;51976;47.332;9.404;2023-01-31T05:49:37;93699.59;;;18.78;30.56
65376;BME280;51976;47.332;9.404;2023-01-31T05:52:02;93696.34;;;18.76;30.62
65376;BME280;51976;47.332;9.404;2023-01-31T05:54:27;93699.78;;;18.81;30.29
65376;BME280;51976;47.332;9.404;2023-01-31T05:56:53;93703.63;;;18.80;30.30
65376;BME280;51976;47.332;9.404;2023-01-31T05:59:18;93701.81;;;18.76;30.70
65376;BME280;51976;47.332;9.404;2023-01-31T06:01:43;93704.56;;;18.76;30.60
65376;BME280;51976;47.332;9.404;2023-01-31T06:04:09;93706.97;;;18.77;30.28
65376;BME280;51976;47.332;9.404;2023-01-31T06:06:34;93703.44;;;18.77;30.53
65376;BME280;51976;47.332;9.404;2023-01-31T06:09:00;93700.88;;;18.80;30.28
65376;BME280;51976;47.332;9.404;2023-01-31T06:11:25;93709.56;;;18.82;30.30
65376;BME280;51976;47.332;9.404;2023-01-31T06:13:51;93709.13;;;18.89;30.34
65376;BME280;51976;47.332;9.404;2023-01-31T06:16:16;93707.38;;;18.93;30.20
65376;BME280;51976;47.332;9.404;2023-01-31T06:18:42;93701.28;;;18.96;30.17
65376;BME280;51976;47.332;9.404;2023-01-31T06:21:07;93702.59;;;18.99;30.15
65376;BME280;51976;47.332;9.404;2023-01-31T06:23:32;93705.31;;;18.99;30.38
65376;BME280;51976;47.332;9.404;2023-01-31T06:26:00;93705.19;;;19.04;30.20
65376;BME280;51976;47.332;9.404;2023-01-31T06:28:26;93715.19;;;19.08;30.01
65376;BME280;51976;47.332;9.404;2023-01-31T06:30:51;93713.06;;;19.05;30.31
65376;BME280;51976;47.332;9.404;2023-01-31T06:33:16;93722.28;;;19.09;30.20
65376;BME280;51976;47.332;9.404;2023-01-31T06:35:43;93720.16;;;19.06;30.02
65376;BME280;51976;47.332;9.404;2023-01-31T06:38:08;93726.63;;;19.10;30.00
65376;BME280;51976;47.332;9.404;2023-01-31T06:40:36;93711.34;;;19.09;29.94
65376;BME280;51976;47.332;9.404;2023-01-31T06:43:02;93707.66;;;19.14;29.91
65376;BME280;51976;47.332;9.404;2023-01-31T06:45:27;93705.25;;;19.12;30.20
65376;BME280;51976;47.332;9.404;2023-01-31T06:47:53;93698.16;;;19.11;30.18
65376;BME280;51976;47.332;9.404;2023-01-31T06:50:18;93698.97;;;19.12;30.01
65376;BME280;51976;47.332;9.404;2023-01-31T06:52:44;93709.59;;;19.13;30.00
65376;BME280;51976;47.332;9.404;2023-01-31T06:55:09;93715.53;;;19.15;30.09
65376;BME280;51976;47.332;9.404;2023-01-31T06:57:35;93709.75;;;19.17;30.20
65376;BME280;51976;47.332;9.404;2023-01-31T07:00:01;93704.59;;;19.15;30.13
65376;BME280;51976;47.332;9.404;2023-01-31T07:02:26;93712.16;;;19.18;30.15
65376;BME280;51976;47.332;9.404;2023-01-31T07:04:52;93722.47;;;19.21;29.95
65376;BME280;51976;47.332;9.404;2023-01-31T07:07:17;93731.31;;;19.18;30.19
65376;BME280;51976;47.332;9.404;2023-01-31T07:09:43;93722.78;;;19.20;30.11
65376;BME280;51976;47.332;9.404;2023-01-31T07:12:08;93729.88;;;19.21;29.86
65376;BME280;51976;47.332;9.404;2023-01-31T07:14:34;93735.03;;;19.22;30.07
65376;BME280;51976;47.332;9.404;2023-01-31T07:16:59;93728.25;;;19.20;30.01
65376;BME280;51976;47.332;9.404;2023-01-31T07:19:25;93729.56;;;19.22;30.21
65376;BME280;51976;47.332;9.404;2023-01-31T07:21:51;93728.75;;;19.22;29.98
65376;BME280;51976;47.332;9.404;2023-01-31T07:24:16;93730.19;;;19.19;30.16
65376;BME280;51976;47.332;9.404;2023-01-31T07:26:42;93725.69;;;19.23;29.93
65376;BME280;51976;47.332;9.404;2023-01-31T07:29:08;93729.38;;;19.19;30.11
65376;BME280;51976;47.332;9.404;2023-01-31T07:31:33;93720.06;;;19.20;30.18
65376;BME280;51976;47.332;9.404;2023-01-31T07:33:59;93712.78;;;19.15;29.85
65376;BME280;51976;47.332;9.404;2023-01-31T07:36:25;93712.47;;;19.17;29.77
65376;BME280;51976;47.332;9.404;2023-01-31T07:38:55;93722.28;;;19.18;29.81
65376;BME280;51976;47.332;9.404;2023-01-31T07:41:22;93722.91;;;19.15;29.67
65376;BME280;51976;47.332;9.404;2023-01-31T07:43:47;93726.81;;;19.14;29.65
65376;BME280;51976;47.332;9.404;2023-01-31T07:46:13;93725.34;;;19.16;29.44
65376;BME280;51976;47.332;9.404;2023-01-31T07:48:38;93731.13;;;19.15;29.61
65376;BME280;51976;47.332;9.404;2023-01-31T07:51:04;93732.56;;;19.12;29.60
65376;BME280;51976;47.332;9.404;2023-01-31T07:53:32;93732.25;;;19.14;29.48
65376;BME280;51976;47.332;9.404;2023-01-31T07:56:12;93728.22;;;19.11;29.47
65376;BME280;51976;47.332;9.404;2023-01-31T07:58:38;93725.50;;;19.11;29.36
65376;BME280;51976;47.332;9.404;2023-01-31T08:01:04;93717.78;;;19.13;29.26
65376;BME280;51976;47.332;9.404;2023-01-31T08:03:50;93721.16;;;19.10;29.28
65376;BME280;51976;47.332;9.404;2023-01-31T08:06:16;93717.91;;;19.08;29.11
65376;BME280;51976;47.332;9.404;2023-01-31T08:08:43;93716.94;;;19.04;29.29
65376;BME280;51976;47.332;9.404;2023-01-31T08:11:09;93712.59;;;19.03;29.14
65376;BME280;51976;47.332;9.404;2023-01-31T08:13:36;93717.25;;;19.03;29.25
65376;BME280;51976;47.332;9.404;2023-01-31T08:16:02;93724.63;;;19.02;29.43
65376;BME280;51976;47.332;9.404;2023-01-31T08:18:28;93721.28;;;19.05;29.36
65376;BME280;51976;47.332;9.404;2023-01-31T08:20:55;93712.47;;;19.08;29.29
65376;BME280;51976;47.332;9.404;2023-01-31T08:23:21;93719.03;;;19.07;29.12
65376;BME280;51976;47.332;9.404;2023-01-31T08:25:46;93720.34;;;19.10;29.22
65376;BME280;51976;47.332;9.404;2023-01-31T08:28:12;93720.66;;;19.08;29.45
65376;BME280;51976;47.332;9.404;2023-01-31T08:30:39;93712.78;;;19.07;29.37
65376;BME280;51976;47.332;9.404;2023-01-31T08:33:06;93712.59;;;19.03;29.53
65376;BME280;51976;47.332;9.404;2023-01-31T08:35:31;93716.94;;;19.04;29.70
65376;BME280;51976;47.332;9.404;2023-01-31T08:37:57;93721.09;;;19.02;29.68
65376;BME280;51976;47.332;9.404;2023-01-31T08:40:22;93714.00;;;19.01;29.56
65376;BME280;51976;47.332;9.404;2023-01-31T08:42:56;93725.06;;;18.96;29.77
65376;BME280;51976;47.332;9.404;2023-01-31T08:45:23;93717.19;;;18.94;29.56
65376;BME280;51976;47.332;9.404;2023-01-31T08:47:55;93710.91;;;18.93;29.67
65376;BME280;51976;47.332;9.404;2023-01-31T08:50:22;93712.97;;;18.88;29.72
65376;BME280;51976;47.332;9.404;2023-01-31T08:52:53;93715.56;;;18.93;29.98
65376;BME280;51976;47.332;9.404;2023-01-31T08:55:19;93711.22;;;18.92;29.76
65376;BME280;51976;47.332;9.404;2023-01-31T08:57:44;93707.50;;;18.88;29.93
65376;BME280;51976;47.332;9.404;2023-01-31T09:00:10;93715.56;;;18.93;29.49
65376;BME280;51976;47.332;9.404;2023-01-31T09:02:36;93714.31;;;18.99;29.72
65376;BME280;51976;47.332;9.404;2023-01-31T09:05:01;93708.41;;;19.06;29.60
65376;BME280;51976;47.332;9.404;2023-01-31T09:07:27;93717.28;;;19.11;29.64
65376;BME280;51976;47.332;9.404;2023-01-31T09:09:52;93715.06;;;19.13;30.04
65376;BME280;51976;47.332;9.404;2023-01-31T09:12:17;93717.13;;;19.16;29.45
65376;BME280;51976;47.332;9.404;2023-01-31T09:14:43;93721.00;;;19.15;29.80
65376;BME280;51976;47.332;9.404;2023-01-31T09:17:08;93718.44;;;19.19;29.51
65376;BME280;51976;47.332;9.404;2023-01-31T09:19:35;93723.28;;;19.22;29.44
65376;BME280;51976;47.332;9.404;2023-01-31T09:22:00;93710.72;;;19.21;29.71
65376;BME280;51976;47.332;9.404;2023-01-31T09:24:26;93714.59;;;19.20;29.54
65376;BME280;51976;47.332;9.404;2023-01-31T09:26:51;93713.97;;;19.23;29.56
65376;BME280;51976;47.332;9.404;2023-01-31T09:29:18;93715.56;;;19.24;29.50
65376;BME280;51976;47.332;9.404;2023-01-31T09:31:43;93719.13;;;19.24;29.80
65376;BME280;51976;47.332;9.404;2023-01-31T09:34:09;93692.38;;;19.13;29.45
65376;BME280;51976;47.332;9.404;2023-01-31T09:36:34;93715.25;;;19.25;29.68
65376;BME280;51976;47.332;9.404;2023-01-31T09:38:59;93709.47;;;19.27;29.47
65376;BME280;51976;47.332;9.404;2023-01-31T09:41:31;93707.56;;;19.27;29.89
65376;BME280;51976;47.332;9.404;2023-01-31T09:44:19;93700.16;;;19.28;29.58
65376;BME280;51976;47.332;9.404;2023-01-31T09:46:58;93699.53;;;19.31;29.57
65376;BME280;51976;47.332;9.404;2023-01-31T09:49:37;93702.25;;;19.31;29.60
65376;BME280;51976;47.332;9.404;2023-01-31T09:52:09;93702.75;;;19.33;29.94
65376;BME280;51976;47.332;9.404;2023-01-31T09:54:37;93702.13;;;19.36;29.61
65376;BME280;51976;47.332;9.404;2023-01-31T09:57:30;93704.06;;;19.36;29.99
65376;BME280;51976;47.332;9.404;2023-01-31T10:00:19;93701.63;;;19.34;29.62
65376;BME280;51976;47.332;9.404;2023-01-31T10:02:59;93701.50;;;19.39;29.75
65376;BME280;51976;47.332;9.404;2023-01-31T10:05:59;93705.53;;;19.42;29.44
65376;BME280;51976;47.332;9.404;2023-01-31T10:08:44;93703.94;;;19.41;29.81
65376;BME280;51976;47.332;9.404;2023-01-31T10:11:21;93706.66;;;19.41;29.82
65376;BME280;51976;47.332;9.404;2023-01-31T10:13:53;93702.47;;;19.43;29.93
65376;BME280;51976;47.332;9.404;2023-01-31T10:16:34;93693.44;;;19.43;29.65
65376;BME280;51976;47.332;9.404;2023-01-31T10:19:05;93692.63;;;19.42;29.83
65376;BME280;51976;47.332;9.404;2023-01-31T10:21:38;93683.66;;;19.42;29.71
65376;BME280;51976;47.332;9.404;2023-01-31T10:24:14;93681.38;;;19.44;29.67
65376;BME280;51976;47.332;9.404;2023-01-31T10:26:43;93678.03;;;19.47;29.66
65376;BME280;51976;47.332;9.404;2023-01-31T10:29:26;93679.16;;;19.46;29.51
65376;BME280;51976;47.332;9.404;2023-01-31T10:32:05;93671.13;;;19.49;29.64
65376;BME280;51976;47.332;9.404;2023-01-31T10:34:40;93671.00;;;19.54;29.87
65376;BME280;51976;47.332;9.404;2023-01-31T10:37:13;93675.66;;;19.54;29.88
65376;BME280;51976;47.332;9.404;2023-01-31T10:39:43;93664.41;;;19.55;29.69
65376;BME280;51976;47.332;9.404;2023-01-31T10:42:31;93666.53;;;19.58;29.88
65376;BME280;51976;47.332;9.404;2023-01-31T10:45:19;93668.31;;;19.63;29.68
65376;BME280;51976;47.332;9.404;2023-01-31T10:47:49;93670.09;;;19.68;29.58
65376;BME280;51976;47.332;9.404;2023-01-31T10:50:18;93663.16;;;19.70;29.78
65376;BME280;51976;47.332;9.404;2023-01-31T10:53:03;93659.16;;;19.76;29.43
65376;BME280;51976;47.332;9.404;2023-01-31T10:56:03;93655.47;;;19.89;29.43
65376;BME280;51976;47.332;9.404;2023-01-31T10:58:29;93650.66;;;19.95;29.60
65376;BME280;51976;47.332;9.404;2023-01-31T11:00:55;93640.81;;;20.03;29.49
65376;BME280;51976;47.332;9.404;2023-01-31T11:03:21;93644.53;;;20.07;29.39
65376;BME280;51976;47.332;9.404;2023-01-31T11:05:52;93635.38;;;20.20;29.47
65376;BME280;51976;47.332;9.404;2023-01-31T11:08:29;93641.63;;;20.29;29.33
65376;BME280;51976;47.332;9.404;2023-01-31T11:10:57;93627.94;;;20.29;29.33
65376;BME280;51976;47.332;9.404;2023-01-31T11:13:23;93635.88;;;20.39;29.46
65376;BME280;51976;47.332;9.404;2023-01-31T11:15:51;93628.44;;;20.48;29.54
65376;BME280;51976;47.332;9.404;2023-01-31T11:18:29;93627.94;;;20.55;29.41
65376;BME280;51976;47.332;9.404;2023-01-31T11:20:57;93615.84;;;20.56;29.49
65376;BME280;51976;47.332;9.404;2023-01-31T11:23:26;93622.94;;;20.66;29.17
65376;BME280;51976;47.332;9.404;2023-01-31T11:25:53;93620.97;;;20.75;29.18
65376;BME280;51976;47.332;9.404;2023-01-31T11:28:37;93618.03;;;20.80;29.39
65376;BME280;51976;47.332;9.404;2023-01-31T11:31:05;93612.88;;;20.87;29.44
65376;BME280;51976;47.332;9.404;2023-01-31T11:33:42;93603.03;;;20.94;29.04
65376;BME280;51976;47.332;9.404;2023-01-31T11:36:12;93601.41;;;20.93;29.29
65376;BME280;51976;47.332;9.404;2023-01-31T11:38:38;93597.69;;;20.98;29.47
65376;BME280;51976;47.332;9.404;2023-01-31T11:41:27;93595.56;;;21.04;29.37
65376;BME280;51976;47.332;9.404;2023-01-31T11:44:07;93587.19;;;21.00;29.57
65376;BME280;51976;47.332;9.404;2023-01-31T11:46:41;93586.88;;;21.02;29.32
65376;BME280;51976;47.332;9.404;2023-01-31T11:49:12;93585.59;;;20.99;29.55
65376;BME280;51976;47.332;9.404;2023-01-31T11:51:39;93581.91;;;20.95;29.81
65376;BME280;51976;47.332;9.404;2023-01-31T11:54:05;93581.75;;;20.91;29.77
65376;BME280;51976;47.332;9.404;2023-01-31T11:56:35;93585.94;;;20.89;29.69
65376;BME280;51976;47.332;9.404;2023-01-31T11:59:04;93577.91;;;20.84;29.95
65376;BME280;51976;47.332;9.404;2023-01-31T12:01:34;93579.03;;;20.83;30.05
65376;BME280;51976;47.332;9.404;2023-01-31T12:04:15;93568.06;;;20.83;30.05
65376;BME280;51976;47.332;9.404;2023-01-31T12:07:00;93559.25;;;20.77;29.84
65376;BME280;51976;47.332;9.404;2023-01-31T12:09:28;93554.09;;;20.76;30.20
65376;BME280;51976;47.332;9.404;2023-01-31T12:11:59;93552.97;;;20.77;30.16
65376;BME280;51976;47.332;9.404;2023-01-31T12:14:38;93558.63;;;20.72;30.02
65376;BME280;51976;47.332;9.404;2023-01-31T12:17:04;93557.81;;;20.71;30.14
65376;BME280;51976;47.332;9.404;2023-01-31T12:19:42;93549.59;;;20.71;30.03
65376;BME280;51976;47.332;9.404;2023-01-31T12:22:22;93539.63;;;20.67;30.60
65376;BME280;51976;47.332;9.404;2023-01-31T12:25:13;93536.41;;;20.65;30.40
65376;BME280;51976;47.332;9.404;2023-01-31T12:28:08;93521.09;;;20.64;30.42
65376;BME280;51976;47.332;9.404;2023-01-31T12:31:16;93519.47;;;20.63;30.52
65376;BME280;51976;47.332;9.404;2023-01-31T12:34:24;93525.28;;;20.61;30.70
65376;BME280;51976;47.332;9.404;2023-01-31T12:40:43;93527.41;;;20.55;30.76
65376;BME280;51976;47.332;9.404;2023-01-31T12:43:02;93534.00;;;20.54;30.51
65376;BME280;51976;47.332;9.404;2023-01-31T12:46:08;93538.34;;;20.55;30.50
65376;BME280;51976;47.332;9.404;2023-01-31T12:51:53;93543.34;;;20.53;30.76
65376;BME280;51976;47.332;9.404;2023-01-31T12:54:52;93552.84;;;20.56;30.64
65376;BME280;51976;47.332;9.404;2023-01-31T12:57:41;93544.97;;;20.54;30.58
65376;BME280;51976;47.332;9.404;2023-01-31T13:00:26;93551.88;;;20.60;30.78
65376;BME280;51976;47.332;9.404;2023-01-31T13:03:24;93542.50;;;20.70;30.53
65376;BME280;51976;47.332;9.404;2023-01-31T13:06:21;93541.84;;;20.73;30.60
65376;BME280;51976;47.332;9.404;2023-01-31T13:08:57;93567.13;;;20.79;30.57
65376;BME280;51976;47.332;9.404;2023-01-31T13:11:34;93557.09;;;20.83;30.33
65376;BME280;51976;47.332;9.404;2023-01-31T13:14:02;93564.97;;;20.93;30.14
65376;BME280;51976;47.332;9.404;2023-01-31T13:16:33;93556.91;;;20.97;30.31
65376;BME280;51976;47.332;9.404;2023-01-31T13:19:03;93550.13;;;21.03;30.53
65376;BME280;51976;47.332;9.404;2023-01-31T13:21:33;93541.56;;;21.04;30.39
65376;BME280;51976;47.332;9.404;2023-01-31T13:24:07;93553.03;;;20.98;30.48
65376;BME280;51976;47.332;9.404;2023-01-31T13:26:36;93527.91;;;20.87;30.56
65376;BME280;51976;47.332;9.404;2023-01-31T13:29:20;93542.69;;;21.03;30.45